Time;durP1;ratioP1;P1;durP2;ratioP2;P2;SDS_P1;SDS_P2;PMS_P1;PMS_P2;Temp;Humidity;BMP_temperature;BMP_pressure;BME280_temperature;BME280_humidity;BME280_pressure;Samples;Min_cycle;Max_cycle;Signal;HPM_P1;HPM_P2
2023/07/23 00:01:00;;;;;;;;;;;;;;;-145.06;100.00;60892.56;4736767;29;19919;-92
2023/07/23 00:03:39;;;;;;;;;;;;;;;-145.06;100.00;60892.56;4736639;29;19919;-92
2023/07/23 00:06:17;;;;;;;;;;;;;;;-145.06;100.00;60892.56;4762642;29;20217;-93
2023/07/23 00:08:56;;;;;;;;;;;;;;;-145.06;100.00;60892.56;4736830;29;19916;-93
2023/07/23 00:11:35;;;;;;;;;;;;;;;20.75;100.00;60892.56;4720592;29;19915;-93
2023/07/23 00:14:15;;;;;;;;;;;;;;;-145.06;100.00;60892.56;4745163;29;19920;-92
2023/07/23 00:16:54;;;;;;;;;;;;;;;-145.06;100.00;60892.56;4744493;29;19955;-92
2023/07/23 00:19:33;;;;;;;;;;;;;;;-145.06;100.00;60892.56;4744885;29;19915;-92
2023/07/23 00:22:12;;;;;;;;;;;;;;;-145.06;100.00;60892.56;4744899;29;20099;-92
2023/07/23 00:24:56;;;;;;;;;;;;;;;-145.06;100.00;60892.56;4744584;29;19919;-92
2023/07/23 00:27:35;;;;;;;;;;;;;;;-145.06;100.00;60892.56;4744293;29;19919;-92
2023/07/23 00:30:14;;;;;;;;;;;;;;;-145.06;100.00;60892.56;4745299;29;19916;-92
2023/07/23 00:32:53;;;;;;;;;;;;;;;-145.06;100.00;60892.56;4748216;29;19916;-91
2023/07/23 00:35:32;;;;;;;;;;;;;;;-145.06;100.00;60892.56;4748535;29;20350;-93
2023/07/23 00:38:11;;;;;;;;;;;;;;;-145.06;100.00;60892.56;4750833;29;20547;-92
2023/07/23 00:40:50;;;;;;;;;;;;;;;-145.06;100.00;60892.56;4755652;29;19918;-92
2023/07/23 00:43:29;;;;;;;;;;;;;;;-145.06;100.00;60892.56;4743852;29;19919;-92
2023/07/23 00:46:08;;;;;;;;;;;;;;;-145.06;100.00;60892.56;4740028;29;19915;-93
2023/07/23 00:48:48;;;;;;;;;;;;;;;-145.06;100.00;60892.56;4734559;29;19919;-92
2023/07/23 00:51:30;;;;;;;;;;;;;;;-145.06;100.00;60892.56;4742166;29;19916;-91
2023/07/23 00:54:11;;;;;;;;;;;;;;;-145.06;100.00;60892.56;4748238;29;20019;-92
2023/07/23 00:56:50;;;;;;;;;;;;;;;-145.06;100.00;60892.56;4754202;29;19946;-92
2023/07/23 00:59:30;;;;;;;;;;;;;;;-145.06;100.00;60892.56;4739755;29;20255;-93
2023/07/23 01:02:09;;;;;;;;;;;;;;;-145.06;100.00;60892.56;4740137;29;19919;-92
2023/07/23 01:04:48;;;;;;;;;;;;;;;-145.06;100.00;60892.56;4740438;29;19916;-93
2023/07/23 01:07:29;;;;;;;;;;;;;;;-145.06;100.00;60892.56;4739818;29;19915;-91
2023/07/23 01:10:09;;;;;;;;;;;;;;;-145.06;100.00;60892.56;4739045;29;19915;-91
2023/07/23 01:12:48;;;;;;;;;;;;;;;-145.06;100.00;60892.56;4739974;29;19919;-93
2023/07/23 01:15:28;;;;;;;;;;;;;;;-145.06;100.00;60892.56;4739410;29;19998;-93
2023/07/23 01:18:07;;;;;;;;;;;;;;;-145.06;100.00;60892.56;4739736;29;20301;-92
2023/07/23 01:20:46;;;;;;;;;;;;;;;-145.06;100.00;60892.56;4770450;29;19914;-93
2023/07/23 01:23:25;;;;;;;;;;;;;;;-145.06;100.00;60892.56;4767654;29;20338;-93
2023/07/23 01:26:04;;;;;;;;;;;;;;;-145.06;100.00;60892.56;4739492;29;19915;-92
2023/07/23 01:28:43;;;;;;;;;;;;;;;-145.06;100.00;60892.56;4739164;29;20002;-93
2023/07/23 01:31:22;;;;;;;;;;;;;;;-145.06;100.00;60892.56;4738783;29;19971;-92
2023/07/23 01:34:05;;;;;;;;;;;;;;;-145.06;100.00;60892.56;4738010;29;19915;-93
2023/07/23 01:36:44;;;;;;;;;;;;;;;-145.06;100.00;60892.56;4738590;29;20334;-92
2023/07/23 01:39:23;;;;;;;;;;;;;;;-145.06;100.00;60892.56;4738743;29;19919;-93
2023/07/23 01:42:03;;;;;;;;;;;;;;;-145.06;100.00;60892.56;4739353;29;19915;-93
2023/07/23 01:44:42;;;;;;;;;;;;;;;-145.06;100.00;60892.56;4737973;29;19923;-92
2023/07/23 01:47:20;;;;;;;;;;;;;;;-145.06;100.00;60892.56;4738342;29;19915;-93
2023/07/23 01:49:59;;;;;;;;;;;;;;;-145.06;100.00;60892.56;4734274;29;20373;-92
2023/07/23 01:52:38;;;;;;;;;;;;;;;-145.06;100.00;60892.56;4733987;29;19916;-92
2023/07/23 01:55:17;;;;;;;;;;;;;;;-145.06;100.00;60892.56;4738801;29;20022;-93
2023/07/23 01:57:59;;;;;;;;;;;;;;;-145.06;100.00;60892.56;4738833;29;19915;-93
2023/07/23 02:00:38;;;;;;;;;;;;;;;-145.06;100.00;60892.56;4764795;29;19915;-93
2023/07/23 02:03:17;;;;;;;;;;;;;;;-145.06;100.00;60892.56;4765497;29;19920;-94
2023/07/23 02:05:57;;;;;;;;;;;;;;;-145.06;100.00;60892.56;4738852;29;19915;-92
2023/07/23 02:08:36;;;;;;;;;;;;;;;-145.06;100.00;60892.56;4738881;29;19923;-91
2023/07/23 02:11:15;;;;;;;;;;;;;;;-145.06;100.00;60892.56;4739199;29;19916;-92
2023/07/23 02:13:54;;;;;;;;;;;;;;;-145.06;100.00;60892.56;4739025;29;19982;-93
2023/07/23 02:16:33;;;;;;;;;;;;;;;-145.06;100.00;60892.56;4739256;29;19915;-93
2023/07/23 02:19:12;;;;;;;;;;;;;;;-145.06;100.00;60892.56;4738829;29;19915;-92
2023/07/23 02:21:51;;;;;;;;;;;;;;;-145.06;100.00;60892.56;4738427;29;20326;-92
2023/07/23 02:24:30;;;;;;;;;;;;;;;-145.06;100.00;60892.56;4739086;29;19927;-91
2023/07/23 02:27:10;;;;;;;;;;;;;;;-145.06;100.00;60892.56;4738565;29;19915;-92
2023/07/23 02:29:49;;;;;;;;;;;;;;;-145.06;100.00;60892.56;4739054;29;19919;-92
2023/07/23 02:32:28;;;;;;;;;;;;;;;-145.06;100.00;60892.56;4738376;29;20429;-93
2023/07/23 02:35:07;;;;;;;;;;;;;;;-145.06;100.00;60892.56;4738560;29;19915;-92
2023/07/23 02:37:47;;;;;;;;;;;;;;;-145.06;100.00;60892.56;4738952;29;19915;-92
2023/07/23 02:40:26;;;;;;;;;;;;;;;-145.06;100.00;60892.56;4737666;29;19915;-91
2023/07/23 02:43:05;;;;;;;;;;;;;;;-145.06;100.00;60892.56;4734670;29;19919;-92
2023/07/23 02:45:44;;;;;;;;;;;;;;;-145.06;100.00;60892.56;4747182;29;20083;-93
2023/07/23 02:48:23;;;;;;;;;;;;;;;-145.06;100.00;60892.56;4746700;29;19915;-92
2023/07/23 02:51:02;;;;;;;;;;;;;;;-145.06;100.00;60892.56;4761252;29;19915;-93
2023/07/23 02:53:41;;;;;;;;;;;;;;;-145.06;100.00;60892.56;4760561;28;19959;-92
2023/07/23 02:56:20;;;;;;;;;;;;;;;-145.06;100.00;60892.56;4760180;29;19948;-91
2023/07/23 02:58:59;;;;;;;;;;;;;;;-145.06;100.00;60892.56;4738457;29;20382;-92
2023/07/23 03:01:38;;;;;;;;;;;;;;;-145.06;100.00;60892.56;4738987;29;19915;-92
2023/07/23 03:04:26;;;;;;;;;;;;;;;-145.06;100.00;60892.56;4738346;29;19919;-93
2023/07/23 03:07:04;;;;;;;;;;;;;;;-145.06;100.00;60892.56;4739787;29;19915;-92
2023/07/23 03:09:44;;;;;;;;;;;;;;;-145.06;100.00;60892.56;4756488;29;19974;-92
2023/07/23 03:12:23;;;;;;;;;;;;;;;-145.06;100.00;60892.56;4756291;29;19918;-93
2023/07/23 03:15:02;;;;;;;;;;;;;;;-145.06;100.00;60892.56;4756810;29;19915;-92
2023/07/23 03:17:41;;;;;;;;;;;;;;;-145.06;100.00;60892.56;4756517;29;19915;-92
2023/07/23 03:20:20;;;;;;;;;;;;;;;-145.06;100.00;60892.56;4755883;29;19919;-94
2023/07/23 03:22:59;;;;;;;;;;;;;;;-145.06;100.00;60892.56;4756124;29;20377;-91
2023/07/23 03:25:38;;;;;;;;;;;;;;;20.78;100.00;60892.56;4750056;29;19923;-92
2023/07/23 03:28:17;;;;;;;;;;;;;;;20.80;100.00;60892.56;4744019;29;19915;-93
2023/07/23 03:30:56;;;;;;;;;;;;;;;20.83;100.00;60892.56;4756010;29;19942;-93
2023/07/23 03:33:35;;;;;;;;;;;;;;;20.85;100.00;60892.56;4756611;29;19915;-93
2023/07/23 03:36:16;;;;;;;;;;;;;;;20.87;100.00;60892.56;4771735;29;21987;-93
2023/07/23 03:38:55;;;;;;;;;;;;;;;20.90;100.00;60892.56;4748676;29;19919;-93
2023/07/23 03:41:39;;;;;;;;;;;;;;;20.92;100.00;60892.56;4737748;29;19915;-92
2023/07/23 03:44:18;;;;;;;;;;;;;;;20.93;100.00;60892.56;4738516;29;19919;-92
2023/07/23 03:47:17;;;;;;;;;;;;;;;20.94;100.00;60892.56;4738357;29;19958;-94
2023/07/23 03:49:57;;;;;;;;;;;;;;;20.96;100.00;60892.56;4739922;29;19915;-93
2023/07/23 03:52:39;;;;;;;;;;;;;;;20.97;100.00;60892.56;4738498;29;19919;-93
2023/07/23 03:55:19;;;;;;;;;;;;;;;20.97;100.00;60892.56;4740546;29;19915;-93
2023/07/23 03:58:01;;;;;;;;;;;;;;;20.97;100.00;60892.56;4740074;29;19916;-93
2023/07/23 04:00:42;;;;;;;;;;;;;;;20.98;100.00;60892.56;4726076;29;19923;-94
2023/07/23 04:03:24;;;;;;;;;;;;;;;-145.06;100.00;60892.56;4725852;29;19919;-92
2023/07/23 04:06:03;;;;;;;;;;;;;;;20.98;100.00;60892.56;4747467;29;19942;-92
2023/07/23 04:08:42;;;;;;;;;;;;;;;20.99;100.00;60892.56;4767194;29;19915;-92
2023/07/23 04:11:21;;;;;;;;;;;;;;;20.99;100.00;60892.56;4757547;29;19915;-93
2023/07/23 04:14:00;;;;;;;;;;;;;;;20.99;100.00;60892.56;4757366;29;19923;-93
2023/07/23 04:16:39;;;;;;;;;;;;;;;20.98;100.00;60892.56;4755910;29;19915;-93
2023/07/23 04:19:18;;;;;;;;;;;;;;;20.98;100.00;60892.56;4758113;29;19915;-92
2023/07/23 04:21:57;;;;;;;;;;;;;;;20.98;100.00;60892.56;4758286;29;19978;-93
2023/07/23 04:24:39;;;;;;;;;;;;;;;20.96;100.00;60892.56;4757757;29;20013;-94
2023/07/23 04:27:20;;;;;;;;;;;;;;;20.97;100.00;60892.56;4758006;29;19915;-93
2023/07/23 04:30:02;;;;;;;;;;;;;;;20.96;100.00;60892.56;4757236;29;19915;-92
2023/07/23 04:32:44;;;;;;;;;;;;;;;20.95;100.00;60892.56;4757198;29;19914;-92
2023/07/23 04:35:23;;;;;;;;;;;;;;;20.95;100.00;60892.56;4757655;29;19915;-93
2023/07/23 04:38:03;;;;;;;;;;;;;;;20.93;100.00;60892.56;4756630;29;19915;-93
2023/07/23 04:40:42;;;;;;;;;;;;;;;20.94;100.00;60892.56;4740544;29;19915;-92
2023/07/23 04:43:29;;;;;;;;;;;;;;;20.92;100.00;60892.56;4736572;29;19974;-93
2023/07/23 04:49:49;;;;;;;;;;;;;;;;;;;;;
2023/07/23 04:52:39;;;;;;;;;;;;;;;20.89;100.00;60892.56;4709291;29;19919;-93
2023/07/23 04:55:19;;;;;;;;;;;;;;;20.88;100.00;60892.56;4736308;29;19951;-92
2023/07/23 04:57:58;;;;;;;;;;;;;;;20.86;100.00;60892.56;4735436;29;19915;-92
2023/07/23 05:00:45;;;;;;;;;;;;;;;20.85;100.00;60892.56;4723899;29;19915;-92
2023/07/23 05:03:40;;;;;;;;;;;;;;;20.84;100.00;60892.56;4729323;29;19920;-91
2023/07/23 05:06:19;;;;;;;;;;;;;;;20.83;100.00;60892.56;4713581;29;19916;-93
2023/07/23 05:09:19;;;;;;;;;;;;;;;20.81;100.00;60892.56;4728324;29;19950;-93
2023/07/23 05:12:20;;;;;;;;;;;;;;;20.82;100.00;104794.97;4712115;29;19920;-93
2023/07/23 05:15:18;;;;;;;;;;;;;;;20.81;100.00;60892.56;4715794;29;20255;-93
2023/07/23 05:17:57;;;;;;;;;;;;;;;20.79;100.00;60892.56;4729930;29;19919;-94
2023/07/23 05:23:53;;;;;;;;;;;;;;;20.77;100.00;60892.56;4725113;29;19958;-93
2023/07/23 05:30:03;;;;;;;;;;;;;;;20.76;100.00;60892.56;4924926;23;19962;-93
2023/07/23 05:33:19;;;;;;;;;;;;;;;;;;;;;
2023/07/23 05:40:37;;;;;;;;;;;;;;;;;;;;;
2023/07/23 05:52:21;;;;;;;;;;;;;;;-145.06;100.00;60892.56;5382712;23;19933;-93
2023/07/23 05:55:00;;;;;;;;;;;;;;;-145.06;100.00;60892.56;4771121;29;20350;-94
2023/07/23 05:57:39;;;;;;;;;;;;;;;-145.06;100.00;60892.56;4771590;29;20305;-93
2023/07/23 06:00:18;;;;;;;;;;;;;;;-145.06;100.00;60892.56;4761718;29;19954;-92
2023/07/23 06:02:57;;;;;;;;;;;;;;;-145.06;100.00;60892.56;4765977;29;19950;-93
2023/07/23 06:05:36;;;;;;;;;;;;;;;-145.06;100.00;60892.56;4780661;29;19919;-92
2023/07/23 06:08:15;;;;;;;;;;;;;;;-145.06;100.00;60892.56;4767254;29;20254;-92
2023/07/23 06:10:55;;;;;;;;;;;;;;;-145.06;100.00;60892.56;4760752;29;19919;-93
2023/07/23 06:13:33;;;;;;;;;;;;;;;-145.06;100.00;60892.56;4781139;29;19915;-94
2023/07/23 06:16:13;;;;;;;;;;;;;;;-145.06;100.00;60892.56;4776399;29;19914;-93
2023/07/23 06:18:52;;;;;;;;;;;;;;;-145.06;100.00;60892.56;4759022;29;19915;-93
2023/07/23 06:21:31;;;;;;;;;;;;;;;-145.06;100.00;60892.56;4763610;29;19919;-94
2023/07/23 06:24:10;;;;;;;;;;;;;;;-145.06;100.00;60892.56;4745233;29;19919;-93
2023/07/23 06:26:49;;;;;;;;;;;;;;;-145.06;100.00;60892.56;4757740;29;20203;-91
2023/07/23 06:29:28;;;;;;;;;;;;;;;-145.06;100.00;60892.56;4750591;29;20251;-91
2023/07/23 06:32:08;;;;;;;;;;;;;;;-145.06;100.00;60892.56;4766779;29;19915;-92
2023/07/23 06:34:47;;;;;;;;;;;;;;;-145.06;100.00;60892.56;4765890;29;19915;-94
2023/07/23 06:37:26;;;;;;;;;;;;;;;-145.06;100.00;60892.56;4765887;29;20382;-93
2023/07/23 06:40:08;;;;;;;;;;;;;;;-145.06;100.00;60892.56;4768543;29;19919;-92
2023/07/23 06:42:48;;;;;;;;;;;;;;;-145.06;100.00;60892.56;4750776;29;19919;-92
2023/07/23 06:45:27;;;;;;;;;;;;;;;-145.06;100.00;60892.56;4755647;29;20386;-92
2023/07/23 06:48:06;;;;;;;;;;;;;;;-145.06;100.00;60892.56;4771696;29;19958;-93
2023/07/23 06:50:46;;;;;;;;;;;;;;;-145.06;100.00;60892.56;4772517;29;19919;-93
2023/07/23 06:53:25;;;;;;;;;;;;;;;-145.06;100.00;60892.56;4771960;29;19918;-93
2023/07/23 06:56:08;;;;;;;;;;;;;;;-145.06;100.00;60892.56;4749258;29;19919;-93
2023/07/23 06:58:47;;;;;;;;;;;;;;;-145.06;100.00;60892.56;4734765;29;19915;-92
2023/07/23 07:01:27;;;;;;;;;;;;;;;-145.06;100.00;60892.56;4743929;29;19919;-93
2023/07/23 07:04:06;;;;;;;;;;;;;;;-145.06;100.00;60892.56;4743133;29;20374;-94
2023/07/23 07:06:45;;;;;;;;;;;;;;;-145.06;100.00;60892.56;4771210;29;19919;-93
2023/07/23 07:09:24;;;;;;;;;;;;;;;-145.06;100.00;60892.56;4752502;29;19919;-94
2023/07/23 07:12:04;;;;;;;;;;;;;;;-145.06;100.00;60892.56;4753742;29;19982;-93
2023/07/23 07:14:42;;;;;;;;;;;;;;;-145.06;100.00;60892.56;4752755;29;19954;-93
2023/07/23 07:17:21;;;;;;;;;;;;;;;-145.06;100.00;60892.56;4754400;29;19958;-94
2023/07/23 07:20:00;;;;;;;;;;;;;;;-145.06;100.00;60892.56;4750563;29;19919;-94
2023/07/23 07:22:39;;;;;;;;;;;;;;;-145.06;100.00;60892.56;4757095;29;19966;-94
2023/07/23 07:25:18;;;;;;;;;;;;;;;-145.06;100.00;60892.56;4755288;29;20432;-93
2023/07/23 07:27:57;;;;;;;;;;;;;;;-145.06;100.00;60892.56;4750990;29;20262;-93
2023/07/23 07:31:27;;;;;;;;;;;;;;;-145.06;100.00;60892.56;4747159;29;19923;-94
2023/07/23 07:34:41;;;;;;;;;;;;;;;-145.06;100.00;60892.56;4719410;29;20006;-93
2023/07/23 07:37:20;;;;;;;;;;;;;;;-145.06;100.00;60892.56;4662418;29;19951;-94
2023/07/23 07:40:00;;;;;;;;;;;;;;;-145.06;100.00;60892.56;4725154;29;20346;-93
2023/07/23 07:42:48;;;;;;;;;;;;;;;-145.06;100.00;60892.56;4748944;28;19915;-93
2023/07/23 07:45:27;;;;;;;;;;;;;;;-145.06;100.00;60892.56;4758156;29;20227;-92
2023/07/23 07:48:09;;;;;;;;;;;;;;;-145.06;100.00;60892.56;4754103;29;19919;-93
2023/07/23 07:50:56;;;;;;;;;;;;;;;-145.06;100.00;60892.56;4763424;29;20315;-93
2023/07/23 07:53:36;;;;;;;;;;;;;;;-145.06;100.00;60892.56;4762518;29;19923;-92
2023/07/23 07:56:17;;;;;;;;;;;;;;;-145.06;100.00;60892.56;4763256;29;19915;-93
2023/07/23 07:58:56;;;;;;;;;;;;;;;-145.06;100.00;60892.56;4765156;29;19920;-93
2023/07/23 08:01:35;;;;;;;;;;;;;;;-145.06;100.00;60892.56;4754918;29;19919;-93
2023/07/23 08:04:14;;;;;;;;;;;;;;;-145.06;100.00;60892.56;4752337;29;19962;-92
2023/07/23 08:06:57;;;;;;;;;;;;;;;-145.06;100.00;60892.56;4765694;29;19919;-93
2023/07/23 08:09:37;;;;;;;;;;;;;;;-145.06;100.00;60892.56;4767161;29;19919;-93
2023/07/23 08:12:21;;;;;;;;;;;;;;;-145.06;100.00;60892.56;4768544;29;19919;-91
2023/07/23 08:15:00;;;;;;;;;;;;;;;-145.06;100.00;60892.56;4765594;29;19954;-93
2023/07/23 08:17:39;;;;;;;;;;;;;;;-145.06;100.00;60892.56;4766342;29;20334;-92
2023/07/23 08:20:18;;;;;;;;;;;;;;;-145.06;100.00;60892.56;4764674;29;20618;-93
2023/07/23 08:23:00;;;;;;;;;;;;;;;-145.06;100.00;60892.56;4740840;29;19916;-93
2023/07/23 08:25:39;;;;;;;;;;;;;;;-145.06;100.00;60892.56;4753123;29;20010;-93
2023/07/23 08:28:23;;;;;;;;;;;;;;;-145.06;100.00;60892.56;4752165;29;20357;-93
2023/07/23 08:31:02;;;;;;;;;;;;;;;-145.06;100.00;60892.56;4764891;29;20204;-92
2023/07/23 08:33:41;;;;;;;;;;;;;;;-145.06;100.00;60892.56;4752528;29;19915;-91
2023/07/23 08:36:24;;;;;;;;;;;;;;;-145.06;100.00;60892.56;4765666;29;19915;-92
2023/07/23 08:39:04;;;;;;;;;;;;;;;-145.06;100.00;60892.56;4763948;29;19916;-93
2023/07/23 08:41:53;;;;;;;;;;;;;;;-145.06;100.00;60892.56;4747314;29;19919;-92
2023/07/23 08:44:44;;;;;;;;;;;;;;;-145.06;100.00;60892.56;4747819;29;19947;-93
2023/07/23 08:47:26;;;;;;;;;;;;;;;-145.06;100.00;60892.56;4745878;29;20268;-92
2023/07/23 08:50:09;;;;;;;;;;;;;;;-145.06;100.00;60892.56;4748415;29;19919;-93
2023/07/23 08:52:49;;;;;;;;;;;;;;;-145.06;100.00;60892.56;4748573;29;19919;-92
2023/07/23 08:55:28;;;;;;;;;;;;;;;-145.06;100.00;60892.56;4743238;29;19919;-93
2023/07/23 08:58:08;;;;;;;;;;;;;;;-145.06;100.00;60892.56;4768664;29;19919;-93
2023/07/23 09:00:47;;;;;;;;;;;;;;;-145.06;100.00;60892.56;4767294;29;19919;-91
2023/07/23 09:03:30;;;;;;;;;;;;;;;-145.06;100.00;60892.56;4748747;29;19920;-93
2023/07/23 09:06:13;;;;;;;;;;;;;;;-145.06;100.00;60892.56;4764713;29;19919;-92
2023/07/23 09:08:54;;;;;;;;;;;;;;;-145.06;100.00;60892.56;4753433;29;19915;-94
2023/07/23 09:11:36;;;;;;;;;;;;;;;-145.06;100.00;60892.56;4766228;29;19919;-93
2023/07/23 09:14:16;;;;;;;;;;;;;;;-145.06;100.00;60892.56;4755350;29;19915;-92
2023/07/23 09:17:17;;;;;;;;;;;;;;;-145.06;100.00;60892.56;4737722;29;20385;-94
2023/07/23 09:20:58;;;;;;;;;;;;;;;-145.06;100.00;60892.56;4780712;29;19918;-93
2023/07/23 09:23:07;;;;;;;;;;;;;;;-145.06;100.00;60892.56;4748330;29;19923;-93
2023/07/23 09:25:49;;;;;;;;;;;;;;;-145.06;100.00;60892.56;4755370;29;19919;-91
2023/07/23 09:28:28;;;;;;;;;;;;;;;-145.06;100.00;60892.56;4769230;29;19915;-93
2023/07/23 09:31:09;;;;;;;;;;;;;;;-145.06;100.00;60892.56;4739629;29;19920;-92
2023/07/23 09:33:51;;;;;;;;;;;;;;;-145.06;100.00;60892.56;4754053;29;19919;-92
2023/07/23 09:36:32;;;;;;;;;;;;;;;-145.06;100.00;60892.56;4749802;29;19915;-92
2023/07/23 09:39:11;;;;;;;;;;;;;;;-145.06;100.00;60892.56;4754987;29;19915;-91
2023/07/23 09:41:50;;;;;;;;;;;;;;;-145.06;100.00;60892.56;4750126;29;19919;-92
2023/07/23 09:44:29;;;;;;;;;;;;;;;-145.06;100.00;60892.56;4750883;29;19919;-93
2023/07/23 09:47:08;;;;;;;;;;;;;;;-145.06;100.00;60892.56;4750811;29;19923;-90
2023/07/23 09:49:48;;;;;;;;;;;;;;;-145.06;100.00;60892.56;4734944;29;19919;-92
2023/07/23 09:52:37;;;;;;;;;;;;;;;-145.06;100.00;60892.56;4748647;29;19946;-90
2023/07/23 09:55:17;;;;;;;;;;;;;;;-145.06;100.00;60892.56;4748349;29;20013;-91
2023/07/23 09:57:58;;;;;;;;;;;;;;;-145.06;100.00;60892.56;4747247;29;20362;-92
2023/07/23 10:00:37;;;;;;;;;;;;;;;-145.06;100.00;60892.56;4730690;29;20410;-92
2023/07/23 10:04:11;;;;;;;;;;;;;;;-145.06;100.00;60892.56;4758878;29;19962;-93
2023/07/23 10:06:58;;;;;;;;;;;;;;;-145.06;100.00;60892.56;4763815;29;19919;-92
2023/07/23 10:10:02;;;;;;;;;;;;;;;-145.06;100.00;60892.56;4751313;29;19919;-94
2023/07/23 10:12:44;;;;;;;;;;;;;;;-145.06;100.00;60892.56;4732192;29;19966;-92
2023/07/23 10:15:27;;;;;;;;;;;;;;;-145.06;100.00;60892.56;4740439;29;19919;-91
2023/07/23 10:18:07;;;;;;;;;;;;;;;-145.06;100.00;60892.56;4750555;29;20410;-91
2023/07/23 10:20:46;;;;;;;;;;;;;;;-145.06;100.00;60892.56;4751359;29;20006;-92
2023/07/23 10:24:02;;;;;;;;;;;;;;;20.77;100.00;60892.56;4763154;29;19919;-93
2023/07/23 10:26:48;;;;;;;;;;;;;;;20.83;100.00;60892.56;4751045;29;19915;-93
2023/07/23 10:29:27;;;;;;;;;;;;;;;20.90;100.00;60892.56;4750083;29;19915;-91
2023/07/23 10:32:35;;;;;;;;;;;;;;;20.94;100.00;60892.56;4749462;29;19919;-93
2023/07/23 10:38:32;;;;;;;;;;;;;;;21.01;100.00;60892.56;4758869;29;19915;-92
2023/07/23 10:45:19;;;;;;;;;;;;;;;-145.06;100.00;60892.56;4737226;29;20397;-92
2023/07/23 10:48:16;;;;;;;;;;;;;;;-145.06;100.00;60892.56;4712468;29;19916;-93
2023/07/23 10:51:10;;;;;;;;;;;;;;;-145.06;100.00;60892.56;4709328;29;19916;-93
2023/07/23 10:54:12;;;;;;;;;;;;;;;-145.06;100.00;60892.56;4735765;29;20477;-91
2023/07/23 10:56:54;;;;;;;;;;;;;;;-145.06;100.00;60892.56;4738596;29;19919;-93
2023/07/23 11:05:05;;;;;;;;;;;;;;;;;;;;;
2023/07/23 11:08:25;;;;;;;;;;;;;;;;;;;;;
2023/07/23 11:11:32;;;;;;;;;;;;;;;-145.06;100.00;60892.56;4952866;23;19946;-94
2023/07/23 11:14:42;;;;;;;;;;;;;;;-145.06;100.00;60892.56;4751840;29;19915;-91
2023/07/23 11:21:05;;;;;;;;;;;;;;;-145.06;100.00;60892.56;5079347;23;19927;-94
2023/07/23 11:23:50;;;;;;;;;;;;;;;-145.06;100.00;60892.56;4740703;29;19931;-93
2023/07/23 11:26:35;;;;;;;;;;;;;;;-145.06;100.00;60892.56;4737832;29;20258;-95
2023/07/23 11:33:22;;;;;;;;;;;;;;;-145.06;100.00;60892.56;4748992;29;19919;-94
2023/07/23 11:53:44;;;;;;;;;;;;;;;-145.06;100.00;60892.56;4750838;29;19915;-94
2023/07/23 12:01:03;;;;;;;;;;;;;;;-145.06;100.00;60892.56;4742688;29;19954;-94
2023/07/23 12:03:29;;;;;;;;;;;;;;;-145.06;100.00;60892.56;4738377;29;19923;-92
2023/07/23 12:06:19;;;;;;;;;;;;;;;-145.06;100.00;60892.56;4755342;29;20373;-93
2023/07/23 12:09:09;;;;;;;;;;;;;;;-145.06;100.00;60892.56;4764832;29;19915;-93
2023/07/23 12:18:29;;;;;;;;;;;;;;;-145.06;100.00;60892.56;4741581;29;19954;-95
2023/07/23 12:21:09;;;;;;;;;;;;;;;-145.06;100.00;60892.56;4749751;29;20209;-93
2023/07/23 12:23:47;;;;;;;;;;;;;;;-145.06;100.00;60892.56;4749483;29;19919;-94
2023/07/23 12:26:33;;;;;;;;;;;;;;;-145.06;100.00;60892.56;4749748;29;19919;-94
2023/07/23 12:29:21;;;;;;;;;;;;;;;-145.06;100.00;60892.56;4755022;29;19914;-94
2023/07/23 12:32:19;;;;;;;;;;;;;;;-145.06;100.00;60892.56;4770114;29;19915;-93
2023/07/23 12:34:58;;;;;;;;;;;;;;;-145.06;100.00;60892.56;4799689;28;19946;-93
2023/07/23 12:45:54;;;;;;;;;;;;;;;-145.06;100.00;60892.56;4758601;29;19919;-93
2023/07/23 12:48:34;;;;;;;;;;;;;;;-145.06;100.00;60892.56;4738759;29;20381;-94
2023/07/23 12:51:30;;;;;;;;;;;;;;;-145.06;100.00;60892.56;4722535;29;19915;-94
2023/07/23 13:01:06;;;;;;;;;;;;;;;-145.06;100.00;60892.56;4682988;29;19915;-93
2023/07/23 13:04:08;;;;;;;;;;;;;;;-145.06;100.00;60892.56;4720791;29;19915;-94
2023/07/23 13:06:50;;;;;;;;;;;;;;;-145.06;100.00;60892.56;4719971;29;20378;-93
2023/07/23 13:09:49;;;;;;;;;;;;;;;-145.06;100.00;60892.56;4708323;29;20076;-93
2023/07/23 13:12:37;;;;;;;;;;;;;;;-145.06;100.00;60892.56;4744349;29;19955;-95
2023/07/23 13:15:39;;;;;;;;;;;;;;;-145.06;100.00;60892.56;4732366;29;19916;-93
2023/07/23 13:18:25;;;;;;;;;;;;;;;-145.06;100.00;60892.56;4731304;29;19916;-94
2023/07/23 13:21:04;;;;;;;;;;;;;;;-145.06;100.00;60892.56;4746099;29;20322;-93
2023/07/23 13:23:43;;;;;;;;;;;;;;;-145.06;100.00;60892.56;4719326;29;19916;-93
2023/07/23 13:26:32;;;;;;;;;;;;;;;;;;;;;
2023/07/23 13:29:11;;;;;;;;;;;;;;;-145.06;100.00;60892.56;4736933;29;19916;-94
2023/07/23 13:31:50;;;;;;;;;;;;;;;-145.06;100.00;60892.56;4747321;29;19916;-95
2023/07/23 13:34:30;;;;;;;;;;;;;;;-145.06;100.00;60892.56;4729777;29;19971;-94
2023/07/23 13:37:12;;;;;;;;;;;;;;;-145.06;100.00;60892.56;4726767;29;19916;-94
2023/07/23 13:39:53;;;;;;;;;;;;;;;-145.06;100.00;60892.56;4714417;29;19916;-93
2023/07/23 13:42:35;;;;;;;;;;;;;;;-145.06;100.00;60892.56;4728497;29;19919;-93
2023/07/23 13:45:30;;;;;;;;;;;;;;;;;;;;;
2023/07/23 13:48:09;;;;;;;;;;;;;;;-145.06;100.00;60892.56;4738068;29;19924;-91
2023/07/23 13:51:23;;;;;;;;;;;;;;;-145.06;100.00;60892.56;4732604;29;19943;-92
2023/07/23 13:54:08;;;;;;;;;;;;;;;-145.06;100.00;60892.56;4746194;29;19919;-93
2023/07/23 13:57:12;;;;;;;;;;;;;;;-145.06;100.00;60892.56;4717611;29;19919;-95
2023/07/23 14:00:24;;;;;;;;;;;;;;;-145.06;100.00;60892.56;4727400;29;20010;-92
2023/07/23 14:03:03;;;;;;;;;;;;;;;-145.06;100.00;60892.56;4713426;29;19920;-92
2023/07/23 14:05:42;;;;;;;;;;;;;;;-145.06;100.00;60892.56;4719501;29;19920;-92
2023/07/23 14:08:23;;;;;;;;;;;;;;;-145.06;100.00;60892.56;4742028;29;20406;-92
2023/07/23 14:11:23;;;;;;;;;;;;;;;-145.06;100.00;60892.56;4854475;23;19930;-93
2023/07/23 14:14:41;;;;;;;;;;;;;;;;;;;;;
2023/07/23 14:21:38;;;;;;;;;;;;;;;;;;;;;
2023/07/23 14:28:26;;;;;;;;;;;;;;;;;;;;;
2023/07/23 14:34:59;;;;;;;;;;;;;;;;;;;;;
2023/07/23 14:46:09;;;;;;;;;;;;;;;-145.06;100.00;60892.56;4755499;29;19931;-93
2023/07/23 14:48:48;;;;;;;;;;;;;;;-145.06;100.00;60892.56;4750682;29;19915;-93
2023/07/23 14:51:27;;;;;;;;;;;;;;;-145.06;100.00;60892.56;4755386;29;19927;-93
2023/07/23 14:54:08;;;;;;;;;;;;;;;-145.06;100.00;60892.56;4753649;29;20381;-94
2023/07/23 14:57:08;;;;;;;;;;;;;;;-145.06;100.00;60892.56;4760604;29;19915;-93
2023/07/23 15:03:25;;;;;;;;;;;;;;;-145.06;100.00;60892.56;4755709;29;20306;-93
2023/07/23 15:06:14;;;;;;;;;;;;;;;-145.06;100.00;60892.56;4769135;29;19915;-94
2023/07/23 15:12:13;;;;;;;;;;;;;;;-145.06;100.00;60892.56;4765066;29;19915;-92
2023/07/23 15:15:07;;;;;;;;;;;;;;;-145.06;100.00;60892.56;4770098;29;19915;-95
2023/07/23 15:21:55;;;;;;;;;;;;;;;;;;;;;
2023/07/23 15:24:47;;;;;;;;;;;;;;;-145.06;100.00;60892.56;4676373;29;19920;-93
2023/07/23 15:27:34;;;;;;;;;;;;;;;-145.06;100.00;60892.56;4730521;29;19915;-94
2023/07/23 15:30:16;;;;;;;;;;;;;;;-145.06;100.00;60892.56;4725582;29;19915;-92
2023/07/23 15:33:18;;;;;;;;;;;;;;;-145.06;100.00;60892.56;4765397;29;20216;-93
2023/07/23 15:39:40;;;;;;;;;;;;;;;-145.06;100.00;60892.56;4725786;29;19916;-94
2023/07/23 15:42:40;;;;;;;;;;;;;;;-145.06;100.00;60892.56;4765087;29;19914;-94
2023/07/23 15:49:07;;;;;;;;;;;;;;;-145.06;100.00;60892.56;4780848;29;19918;-95
2023/07/23 15:55:41;;;;;;;;;;;;;;;;;;;;;
2023/07/23 15:58:36;;;;;;;;;;;;;;;-145.06;100.00;60892.56;4758216;29;19915;-92
2023/07/23 16:05:21;;;;;;;;;;;;;;;;;;;;;
2023/07/23 16:08:34;;;;;;;;;;;;;;;-145.06;100.00;60892.56;4754395;28;19924;-92
2023/07/23 16:14:48;;;;;;;;;;;;;;;-145.06;100.00;60892.56;4725487;29;20018;-93
2023/07/23 16:59:24;;;;;;;;;;;;;;;-145.06;100.00;60892.56;4688626;29;19944;-92
2023/07/23 17:12:39;;;;;;;;;;;;;;;-145.06;100.00;60892.56;5152587;23;20608;-93